createdAt,value
2018-07-24T00:02:10.379Z,9.37
2018-07-24T00:04:38.839Z,8.93
2018-07-24T00:07:07.374Z,9.87
2018-07-24T00:09:35.757Z,9.80
2018-07-24T00:12:04.155Z,9.97
2018-07-24T00:14:32.249Z,8.67
2018-07-24T00:17:00.546Z,9.23
2018-07-24T00:19:28.907Z,10.20
2018-07-24T00:21:58.421Z,9.10
2018-07-24T00:24:27.092Z,8.87
2018-07-24T00:26:55.713Z,9.57
2018-07-24T00:29:24.056Z,10.17
2018-07-24T00:31:52.523Z,10.40
2018-07-24T00:34:21.131Z,11.40
2018-07-24T00:36:49.524Z,10.73
2018-07-24T00:39:17.905Z,10.23
2018-07-24T00:41:46.223Z,10.87
2018-07-24T00:44:14.630Z,10.47
2018-07-24T00:46:43.155Z,10.30
2018-07-24T00:49:11.888Z,10.93
2018-07-24T00:51:40.450Z,12.50
2018-07-24T00:54:08.837Z,10.47
2018-07-24T00:56:37.210Z,11.40
2018-07-24T00:59:06.106Z,11.60
2018-07-24T01:01:34.895Z,13.70
2018-07-24T01:04:04.228Z,13.23
2018-07-24T01:06:32.639Z,11.80
2018-07-24T01:09:00.944Z,13.17
2018-07-24T01:11:29.372Z,12.17
2018-07-24T01:13:57.707Z,12.37
2018-07-24T01:16:26.039Z,12.80
2018-07-24T01:18:54.655Z,13.37
2018-07-24T01:21:23.060Z,13.30
2018-07-24T01:23:51.124Z,13.43
2018-07-24T01:26:19.465Z,13.93
2018-07-24T01:28:48.070Z,12.30
2018-07-24T01:31:17.009Z,13.63
2018-07-24T01:33:45.332Z,13.30
2018-07-24T01:36:14.160Z,12.70
2018-07-24T01:38:42.700Z,13.03
2018-07-24T01:41:11.402Z,13.23
2018-07-24T01:43:40.019Z,13.17
2018-07-24T01:46:08.359Z,13.93
2018-07-24T01:48:36.734Z,14.80
2018-07-24T01:51:05.099Z,13.40
2018-07-24T01:53:33.600Z,13.60
2018-07-24T01:56:02.068Z,14.90
2018-07-24T01:58:30.168Z,14.43
2018-07-24T02:01:02.610Z,14.67
2018-07-24T02:03:31.635Z,13.93
2018-07-24T02:06:00.208Z,13.97
2018-07-24T02:08:28.462Z,14.27
2018-07-24T02:10:56.915Z,14.47
2018-07-24T02:13:25.247Z,15.87
2018-07-24T02:15:53.637Z,15.90
2018-07-24T02:18:22.070Z,14.87
2018-07-24T02:23:23.159Z,16.13
2018-07-24T02:25:51.624Z,17.43
2018-07-24T02:28:20.044Z,18.03
2018-07-24T02:30:48.924Z,16.57
2018-07-24T02:33:17.401Z,17.70
2018-07-24T02:35:45.951Z,16.90
2018-07-24T02:38:14.462Z,17.70
2018-07-24T02:40:43.046Z,17.00
2018-07-24T02:43:11.453Z,17.17
2018-07-24T02:45:40.734Z,17.87
2018-07-24T02:48:09.547Z,19.17
2018-07-24T02:50:37.883Z,18.23
2018-07-24T02:53:06.369Z,18.40
2018-07-24T02:55:34.714Z,18.47
2018-07-24T02:58:03.119Z,16.70
2018-07-24T03:00:31.589Z,18.77
2018-07-24T03:02:59.877Z,17.90
2018-07-24T03:05:28.375Z,18.73
2018-07-24T03:07:56.733Z,18.63
2018-07-24T03:10:25.055Z,17.20
2018-07-24T03:12:53.441Z,17.90
2018-07-24T03:15:21.871Z,17.23
2018-07-24T03:17:50.888Z,18.10
2018-07-24T03:20:19.288Z,18.07
2018-07-24T03:22:47.889Z,18.37
2018-07-24T03:25:16.392Z,19.07
2018-07-24T03:27:44.798Z,18.27
2018-07-24T03:30:13.189Z,18.67
2018-07-24T03:32:41.684Z,17.97
2018-07-24T03:35:10.367Z,18.23
2018-07-24T03:37:38.784Z,19.60
2018-07-24T03:40:07.410Z,18.20
2018-07-24T03:42:35.821Z,17.97
2018-07-24T03:45:04.573Z,18.57
2018-07-24T03:47:32.877Z,20.80
2018-07-24T03:50:01.233Z,19.03
2018-07-24T03:52:29.672Z,18.90
2018-07-24T03:54:58.124Z,19.33
2018-07-24T03:57:29.523Z,18.53
2018-07-24T03:59:57.932Z,17.93
2018-07-24T04:02:26.382Z,16.77
2018-07-24T04:04:54.757Z,18.77
2018-07-24T04:07:23.064Z,17.20
2018-07-24T04:09:51.160Z,16.87
2018-07-24T04:12:19.568Z,16.43
2018-07-24T04:14:47.954Z,13.90
2018-07-24T04:17:16.418Z,15.23
2018-07-24T04:19:44.776Z,16.03
2018-07-24T04:22:13.238Z,14.83
2018-07-24T04:24:41.660Z,14.63
2018-07-24T04:27:10.064Z,14.50
2018-07-24T04:29:38.590Z,13.40
2018-07-24T04:32:07.026Z,13.43
2018-07-24T04:34:35.359Z,13.33
2018-07-24T04:37:03.817Z,13.30
2018-07-24T04:39:32.247Z,13.33
2018-07-24T04:42:00.671Z,12.53
2018-07-24T04:44:29.099Z,13.47
2018-07-24T04:46:57.563Z,11.87
2018-07-24T04:49:26.701Z,13.10
2018-07-24T04:51:55.047Z,11.90
2018-07-24T04:54:23.461Z,12.07
2018-07-24T04:56:51.927Z,13.07
2018-07-24T04:59:20.300Z,12.00
2018-07-24T05:01:48.879Z,11.27
2018-07-24T05:04:17.296Z,11.90
2018-07-24T05:06:45.634Z,11.43
2018-07-24T05:09:14.256Z,12.30
2018-07-24T05:11:43.266Z,11.77
2018-07-24T05:14:11.884Z,11.40
2018-07-24T05:16:40.868Z,12.13
2018-07-24T05:19:09.408Z,10.47
2018-07-24T05:21:37.977Z,11.97
2018-07-24T05:24:06.835Z,11.97
2018-07-24T05:26:35.386Z,10.53
2018-07-24T05:29:03.883Z,10.63
2018-07-24T05:31:32.170Z,9.87
2018-07-24T05:34:00.535Z,10.23
2018-07-24T05:36:28.883Z,10.40
2018-07-24T05:38:57.377Z,11.10
2018-07-24T05:41:25.844Z,9.60
2018-07-24T05:43:54.249Z,9.27
2018-07-24T05:46:23.414Z,9.20
2018-07-24T05:48:51.717Z,9.10
2018-07-24T05:51:20.317Z,9.13
2018-07-24T05:53:48.651Z,8.83
2018-07-24T05:56:17.272Z,8.67
2018-07-24T05:58:45.958Z,8.10
2018-07-24T06:01:14.427Z,8.87
2018-07-24T06:03:42.814Z,8.43
2018-07-24T06:06:11.341Z,8.60
2018-07-24T06:08:39.846Z,8.17
2018-07-24T06:11:08.691Z,7.93
2018-07-24T06:13:37.012Z,8.77
2018-07-24T06:16:05.394Z,7.67
2018-07-24T06:18:33.790Z,8.70
2018-07-24T06:21:02.167Z,7.97
2018-07-24T06:23:30.633Z,9.07
2018-07-24T06:25:59.057Z,7.80
2018-07-24T06:28:27.425Z,8.27
2018-07-24T06:30:55.821Z,7.47
2018-07-24T06:33:24.155Z,6.97
2018-07-24T06:35:52.549Z,6.93
2018-07-24T06:38:20.933Z,6.93
2018-07-24T06:40:49.449Z,6.40
2018-07-24T06:43:17.842Z,6.50
2018-07-24T06:45:46.249Z,5.73
2018-07-24T06:48:14.682Z,6.37
2018-07-24T06:50:43.007Z,6.33
2018-07-24T06:53:16.204Z,6.60
2018-07-24T06:55:44.574Z,6.03
2018-07-24T06:58:13.208Z,5.67
2018-07-24T07:00:41.497Z,5.37
2018-07-24T07:03:09.885Z,5.80
2018-07-24T07:05:38.300Z,5.00
2018-07-24T07:08:06.709Z,5.50
2018-07-24T07:10:35.683Z,5.20
2018-07-24T07:13:04.828Z,4.70
2018-07-24T07:15:33.145Z,4.10
2018-07-24T07:18:01.624Z,5.10
2018-07-24T07:20:30.461Z,4.20
2018-07-24T07:22:58.886Z,4.60
2018-07-24T07:25:27.815Z,4.67
2018-07-24T07:27:56.888Z,6.27
2018-07-24T07:30:25.538Z,4.57
2018-07-24T07:32:54.017Z,3.93
2018-07-24T07:35:22.423Z,4.17
2018-07-24T07:37:51.041Z,5.15
2018-07-24T07:40:19.494Z,3.83
2018-07-24T07:42:47.898Z,4.15
2018-07-24T07:45:16.297Z,3.98
2018-07-24T07:47:44.706Z,4.12
2018-07-24T07:50:13.139Z,4.10
2018-07-24T07:52:41.496Z,6.85
2018-07-24T07:55:09.874Z,5.47
2018-07-24T07:57:38.289Z,3.62
2018-07-24T08:00:07.010Z,4.17
2018-07-24T08:02:35.655Z,3.42
2018-07-24T08:05:04.072Z,3.80
2018-07-24T08:07:32.533Z,3.40
2018-07-24T08:10:01.147Z,3.85
2018-07-24T08:12:30.858Z,3.58
2018-07-24T08:14:59.329Z,3.42
2018-07-24T08:17:27.751Z,3.30
2018-07-24T08:19:56.317Z,3.47
2018-07-24T08:22:25.024Z,3.52
2018-07-24T08:24:53.385Z,3.10
2018-07-24T08:27:21.815Z,3.58
2018-07-24T08:29:50.726Z,2.65
2018-07-24T08:32:19.492Z,2.77
2018-07-24T08:34:47.871Z,2.70
2018-07-24T08:37:16.420Z,3.05
2018-07-24T08:39:45.220Z,3.10
2018-07-24T08:42:13.628Z,2.87
2018-07-24T08:44:42.296Z,3.50
2018-07-24T08:47:10.698Z,3.02
2018-07-24T08:49:39.124Z,3.12
2018-07-24T08:52:07.658Z,2.70
2018-07-24T08:54:36.294Z,2.80
2018-07-24T08:57:04.436Z,2.58
2018-07-24T08:59:32.857Z,2.98
2018-07-24T09:02:01.602Z,2.55
2018-07-24T09:04:29.996Z,2.58
2018-07-24T09:06:58.949Z,2.70
2018-07-24T09:09:27.412Z,2.92
2018-07-24T09:11:55.816Z,2.35
2018-07-24T09:14:24.257Z,2.58
2018-07-24T09:16:52.691Z,2.30
2018-07-24T09:19:21.232Z,2.47
2018-07-24T09:21:49.660Z,3.30
2018-07-24T09:24:18.242Z,2.50
2018-07-24T09:26:46.606Z,2.58
2018-07-24T09:29:14.936Z,2.50
2018-07-24T09:31:43.423Z,2.60
2018-07-24T09:34:12.369Z,2.75
2018-07-24T09:36:40.729Z,2.50
2018-07-24T09:39:10.589Z,3.00
2018-07-24T09:41:39.610Z,2.55
2018-07-24T09:44:08.860Z,2.60
2018-07-24T09:46:37.469Z,2.50
2018-07-24T09:49:06.067Z,2.50
2018-07-24T09:51:34.472Z,2.10
2018-07-24T09:54:02.937Z,2.58
2018-07-24T09:56:31.284Z,2.50
2018-07-24T09:59:00.333Z,2.65
2018-07-24T10:01:33.279Z,2.37
2018-07-24T10:04:02.618Z,2.10
2018-07-24T10:06:31.674Z,2.40
2018-07-24T10:09:00.072Z,2.30
2018-07-24T10:11:28.454Z,1.95
2018-07-24T10:13:57.119Z,2.75
2018-07-24T10:16:25.679Z,2.37
2018-07-24T10:18:53.805Z,2.33
2018-07-24T10:21:22.215Z,2.52
2018-07-24T10:23:50.919Z,2.80
2018-07-24T10:26:19.368Z,2.12
2018-07-24T10:28:47.876Z,2.22
2018-07-24T10:31:16.862Z,3.10
2018-07-24T10:33:45.316Z,2.08
2018-07-24T10:36:14.422Z,2.58
2018-07-24T10:38:44.473Z,1.82
2018-07-24T10:41:13.143Z,2.00
2018-07-24T10:43:41.834Z,2.35
2018-07-24T10:46:11.268Z,2.22
2018-07-24T10:48:40.819Z,2.45
2018-07-24T10:51:10.354Z,1.90
2018-07-24T10:53:39.959Z,2.10
2018-07-24T10:56:08.648Z,2.30
2018-07-24T10:58:37.233Z,2.10
2018-07-24T11:01:05.617Z,1.85
2018-07-24T11:03:34.061Z,2.00
2018-07-24T11:06:02.559Z,2.08
2018-07-24T11:08:30.918Z,1.92
2018-07-24T11:10:59.415Z,1.98
2018-07-24T11:13:27.786Z,2.20
2018-07-24T11:15:56.300Z,2.35
2018-07-24T11:18:25.697Z,1.92
2018-07-24T11:20:54.096Z,2.05
2018-07-24T11:23:22.489Z,2.25
2018-07-24T11:25:50.853Z,1.85
2018-07-24T11:28:19.224Z,2.17
2018-07-24T11:30:47.926Z,2.15
2018-07-24T11:33:16.703Z,2.72
2018-07-24T11:35:45.266Z,1.95
2018-07-24T11:38:13.537Z,5.25
2018-07-24T11:40:43.097Z,2.85
2018-07-24T11:43:11.594Z,2.40
2018-07-24T11:45:40.101Z,2.20
2018-07-24T11:48:08.593Z,2.20
2018-07-24T11:50:37.486Z,1.87
2018-07-24T11:53:05.885Z,1.90
2018-07-24T11:55:34.315Z,2.20
2018-07-24T11:58:02.778Z,1.77
2018-07-24T12:00:31.210Z,2.10
2018-07-24T12:02:59.698Z,2.17
2018-07-24T12:05:28.821Z,2.33
2018-07-24T12:07:57.357Z,1.90
2018-07-24T12:10:25.596Z,1.70
2018-07-24T12:12:53.735Z,2.42
2018-07-24T12:15:22.279Z,2.08
2018-07-24T12:17:50.709Z,1.92
2018-07-24T12:20:19.241Z,1.90
2018-07-24T12:22:47.622Z,1.92
2018-07-24T12:25:16.944Z,1.70
2018-07-24T12:27:45.584Z,1.98
2018-07-24T12:30:14.732Z,1.87
2018-07-24T12:32:43.278Z,1.52
2018-07-24T12:35:11.707Z,1.90
2018-07-24T12:37:40.141Z,1.77
2018-07-24T12:40:08.738Z,1.50
2018-07-24T12:42:37.101Z,1.82
2018-07-24T12:45:06.540Z,1.92
2018-07-24T12:47:35.008Z,1.62
2018-07-24T12:50:03.559Z,2.10
2018-07-24T12:52:32.036Z,1.70
2018-07-24T12:55:00.477Z,1.90
2018-07-24T12:57:29.073Z,2.27
2018-07-24T12:59:57.534Z,2.25
2018-07-24T13:02:26.519Z,2.15
2018-07-24T13:04:55.137Z,2.20
2018-07-24T13:07:23.724Z,2.70
2018-07-24T13:09:52.226Z,2.12
2018-07-24T13:12:20.665Z,2.45
2018-07-24T13:14:49.376Z,2.10
2018-07-24T13:17:17.872Z,1.80
2018-07-24T13:19:47.760Z,1.70
2018-07-24T13:22:16.175Z,2.15
2018-07-24T13:24:44.770Z,1.82
2018-07-24T13:27:13.456Z,1.87
2018-07-24T13:29:42.062Z,1.92
2018-07-24T13:32:10.292Z,1.85
2018-07-24T13:34:40.218Z,2.35
2018-07-24T13:37:08.857Z,1.92
2018-07-24T13:39:38.755Z,1.50
2018-07-24T13:42:07.293Z,1.80
2018-07-24T13:44:35.695Z,1.62
2018-07-24T13:47:04.157Z,1.60
2018-07-24T13:49:35.923Z,1.70
2018-07-24T13:52:04.405Z,1.80
2018-07-24T13:54:35.220Z,2.08
2018-07-24T13:57:04.126Z,1.90
2018-07-24T13:59:32.468Z,2.10
2018-07-24T14:02:00.918Z,2.30
2018-07-24T14:04:29.462Z,1.72
2018-07-24T14:06:57.912Z,2.08
2018-07-24T14:09:26.250Z,2.15
2018-07-24T14:11:54.766Z,2.00
2018-07-24T14:14:23.127Z,1.90
2018-07-24T14:16:51.556Z,2.08
2018-07-24T14:19:20.144Z,2.25
2018-07-24T14:21:49.418Z,2.10
2018-07-24T14:24:19.119Z,2.22
2018-07-24T14:26:47.573Z,2.45
2018-07-24T14:29:16.096Z,2.30
2018-07-24T14:31:45.421Z,2.75
2018-07-24T14:34:14.035Z,2.87
2018-07-24T14:36:42.932Z,2.30
2018-07-24T14:39:12.941Z,2.40
2018-07-24T14:41:41.396Z,2.50
2018-07-24T14:44:11.646Z,2.90
2018-07-24T14:46:40.923Z,2.60
2018-07-24T14:49:09.567Z,3.07
2018-07-24T14:51:38.014Z,3.00
2018-07-24T14:54:06.455Z,2.80
2018-07-24T14:56:35.597Z,3.03
2018-07-24T14:59:04.513Z,3.27
2018-07-24T15:01:33.791Z,3.47
2018-07-24T15:04:02.252Z,2.80
2018-07-24T15:06:30.756Z,3.10
2018-07-24T15:08:59.752Z,2.83
2018-07-24T15:11:28.160Z,3.23
2018-07-24T15:13:57.206Z,3.17
2018-07-24T15:16:25.806Z,3.70
2018-07-24T15:18:54.317Z,2.90
2018-07-24T15:21:22.836Z,3.40
2018-07-24T15:23:52.049Z,3.37
2018-07-24T15:26:20.510Z,3.53
2018-07-24T15:28:50.201Z,3.13
2018-07-24T15:31:18.539Z,2.87
2018-07-24T15:33:47.027Z,3.23
2018-07-24T15:36:15.515Z,3.53
2018-07-24T15:38:44.322Z,2.90
2018-07-24T15:41:12.932Z,3.67
2018-07-24T15:43:41.427Z,3.40
2018-07-24T15:46:09.817Z,3.30
2018-07-24T15:48:39.422Z,3.20
2018-07-24T15:51:08.210Z,3.03
2018-07-24T15:53:38.726Z,3.00
2018-07-24T15:56:07.764Z,3.07
2018-07-24T15:58:36.921Z,3.17
2018-07-24T16:01:09.530Z,3.10
2018-07-24T16:03:38.477Z,3.10
2018-07-24T16:06:07.065Z,3.40
2018-07-24T16:08:35.405Z,3.70
2018-07-24T16:11:03.847Z,3.10
2018-07-24T16:13:33.710Z,3.50
2018-07-24T16:16:02.239Z,3.37
2018-07-24T16:18:31.837Z,3.50
2018-07-24T16:21:00.333Z,3.20
2018-07-24T16:23:30.109Z,3.37
2018-07-24T16:25:59.175Z,3.77
2018-07-24T16:28:27.990Z,3.30
2018-07-24T16:30:56.489Z,3.10
2018-07-24T16:33:24.859Z,3.07
2018-07-24T16:35:53.271Z,2.97
2018-07-24T16:38:22.433Z,3.30
2018-07-24T16:40:50.914Z,3.90
2018-07-24T16:43:19.575Z,3.50
2018-07-24T16:45:48.954Z,3.60
2018-07-24T16:48:17.590Z,3.10
2018-07-24T16:50:46.098Z,3.50
2018-07-24T16:53:14.578Z,2.93
2018-07-24T16:55:42.957Z,4.10
2018-07-24T16:58:11.365Z,3.10
2018-07-24T17:00:39.998Z,4.27
2018-07-24T17:03:08.851Z,3.50
2018-07-24T17:05:37.340Z,3.80
2018-07-24T17:08:06.035Z,3.90
2018-07-24T17:10:34.579Z,3.10
2018-07-24T17:13:03.074Z,3.33
2018-07-24T17:15:31.451Z,3.53
2018-07-24T17:18:00.309Z,3.37
2018-07-24T17:20:28.792Z,3.20
2018-07-24T17:22:57.995Z,3.80
2018-07-24T17:25:26.355Z,3.37
2018-07-24T17:27:55.471Z,3.50
2018-07-24T17:30:24.181Z,3.20
2018-07-24T17:32:52.870Z,3.43
2018-07-24T17:35:21.234Z,3.47
2018-07-24T17:37:49.782Z,3.53
2018-07-24T17:40:18.338Z,3.67
2018-07-24T17:42:46.761Z,3.57
2018-07-24T17:45:15.805Z,3.40
2018-07-24T17:47:44.585Z,4.00
2018-07-24T17:50:13.120Z,3.30
2018-07-24T17:52:42.216Z,3.60
2018-07-24T17:55:11.897Z,3.33
2018-07-24T17:57:40.270Z,3.00
2018-07-24T18:00:08.809Z,3.30
2018-07-24T18:02:37.312Z,3.37
2018-07-24T18:05:05.886Z,3.33
2018-07-24T18:07:34.522Z,3.20
2018-07-24T18:10:03.251Z,3.93
2018-07-24T18:12:31.704Z,3.83
2018-07-24T18:15:00.123Z,3.23
2018-07-24T18:17:28.777Z,3.73
2018-07-24T18:19:57.708Z,3.40
2018-07-24T18:22:26.139Z,3.90
2018-07-24T18:24:54.550Z,3.87
2018-07-24T18:27:23.027Z,3.87
2018-07-24T18:29:51.881Z,3.70
2018-07-24T18:32:20.372Z,3.60
2018-07-24T18:34:48.748Z,5.07
2018-07-24T18:37:17.409Z,4.70
2018-07-24T18:39:45.879Z,4.13
2018-07-24T18:42:14.624Z,4.90
2018-07-24T18:44:43.011Z,4.70
2018-07-24T18:47:11.502Z,5.00
2018-07-24T18:49:40.004Z,4.83
2018-07-24T18:52:08.510Z,4.70
2018-07-24T18:54:36.921Z,4.37
2018-07-24T18:57:06.186Z,5.43
2018-07-24T18:59:34.753Z,4.70
2018-07-24T19:02:03.507Z,3.80
2018-07-24T19:04:31.857Z,4.47
2018-07-24T19:07:00.300Z,3.80
2018-07-24T19:09:28.740Z,3.77
2018-07-24T19:11:57.231Z,3.90
2018-07-24T19:14:25.605Z,3.77
2018-07-24T19:16:53.995Z,4.43
2018-07-24T19:19:22.479Z,5.20
2018-07-24T19:21:50.800Z,5.03
2018-07-24T19:24:19.896Z,4.90
2018-07-24T19:26:48.280Z,4.50
2018-07-24T19:29:17.467Z,5.00
2018-07-24T19:31:46.079Z,4.10
2018-07-24T19:34:14.917Z,3.70
2018-07-24T19:36:43.535Z,4.30
2018-07-24T19:39:12.517Z,4.13
2018-07-24T19:41:41.132Z,4.10
2018-07-24T19:44:09.961Z,4.77
2018-07-24T19:46:38.913Z,4.70
2018-07-24T19:49:07.598Z,4.50
2018-07-24T19:51:36.092Z,4.10
2018-07-24T19:54:04.899Z,3.80
2018-07-24T19:56:33.497Z,3.93
2018-07-24T19:59:01.905Z,3.80
2018-07-24T20:01:31.691Z,4.70
2018-07-24T20:04:00.131Z,4.60
2018-07-24T20:06:29.473Z,5.80
2018-07-24T20:08:57.925Z,6.17
2018-07-24T20:11:26.715Z,7.97
2018-07-24T20:13:55.272Z,25.10
2018-07-24T20:16:23.759Z,9.00
2018-07-24T20:18:52.337Z,4.83
2018-07-24T20:21:22.529Z,4.70
2018-07-24T20:23:51.177Z,4.50
2018-07-24T20:26:20.940Z,4.77
2018-07-24T20:28:49.473Z,4.20
2018-07-24T20:31:18.108Z,3.30
2018-07-24T20:33:46.411Z,3.97
2018-07-24T20:36:14.869Z,4.87
2018-07-24T20:38:43.545Z,6.13
2018-07-24T20:41:12.050Z,5.47
2018-07-24T20:43:40.482Z,5.07
2018-07-24T20:46:09.692Z,4.83
2018-07-24T20:48:38.040Z,4.20
2018-07-24T20:51:06.405Z,4.30
2018-07-24T20:53:34.857Z,4.87
2018-07-24T20:56:03.313Z,4.53
2018-07-24T20:58:31.741Z,4.33
2018-07-24T21:01:00.200Z,3.90
2018-07-24T21:03:28.647Z,4.57
2018-07-24T21:05:58.961Z,4.50
2018-07-24T21:08:28.132Z,4.60
2018-07-24T21:10:56.745Z,4.97
2018-07-24T21:13:25.205Z,4.80
2018-07-24T21:15:53.616Z,5.53
2018-07-24T21:18:22.248Z,4.53
2018-07-24T21:20:51.217Z,4.33
2018-07-24T21:23:19.507Z,5.27
2018-07-24T21:25:47.908Z,5.30
2018-07-24T21:28:17.887Z,5.60
2018-07-24T21:30:47.229Z,5.70
2018-07-24T21:33:15.721Z,5.70
2018-07-24T21:35:44.625Z,6.40
2018-07-24T21:38:13.450Z,6.57
2018-07-24T21:40:43.389Z,10.03
2018-07-24T21:43:11.741Z,5.33
2018-07-24T21:45:40.244Z,6.10
2018-07-24T21:48:08.833Z,5.80
2018-07-24T21:50:37.191Z,6.60
2018-07-24T21:53:05.622Z,6.03
2018-07-24T21:55:34.138Z,5.07
2018-07-24T21:58:02.551Z,5.60
2018-07-24T22:00:35.094Z,5.40
2018-07-24T22:03:04.881Z,6.20
2018-07-24T22:05:34.192Z,4.83
2018-07-24T22:08:02.637Z,5.63
2018-07-24T22:10:31.474Z,5.30
2018-07-24T22:12:59.793Z,5.87
2018-07-24T22:15:28.257Z,6.30
2018-07-24T22:17:57.527Z,6.20
2018-07-24T22:20:25.950Z,6.10
2018-07-24T22:22:54.327Z,7.03
2018-07-24T22:25:22.967Z,7.10
2018-07-24T22:27:51.384Z,6.13
2018-07-24T22:30:19.801Z,6.90
2018-07-24T22:32:48.142Z,7.60
2018-07-24T22:35:16.518Z,7.10
2018-07-24T22:37:45.521Z,7.10
2018-07-24T22:40:14.418Z,6.90
2018-07-24T22:42:42.770Z,7.80
2018-07-24T22:45:11.224Z,6.50
2018-07-24T22:47:39.930Z,6.90
2018-07-24T22:50:08.353Z,6.20
2018-07-24T22:52:36.839Z,7.30
2018-07-24T22:55:05.264Z,7.10
2018-07-24T22:57:33.574Z,6.93
2018-07-24T23:00:01.868Z,7.10
2018-07-24T23:02:30.284Z,6.67
2018-07-24T23:04:58.705Z,6.77
2018-07-24T23:07:27.107Z,7.33
2018-07-24T23:09:55.472Z,7.97
2018-07-24T23:12:23.945Z,7.30
2018-07-24T23:14:52.242Z,6.83
2018-07-24T23:17:21.206Z,7.63
2018-07-24T23:19:50.090Z,7.67
2018-07-24T23:22:18.472Z,7.93
2018-07-24T23:24:47.097Z,7.20
2018-07-24T23:27:15.431Z,7.27
2018-07-24T23:29:44.811Z,7.80
2018-07-24T23:32:13.181Z,7.80
2018-07-24T23:34:41.495Z,7.90
2018-07-24T23:37:09.815Z,8.07
2018-07-24T23:39:38.207Z,8.27
2018-07-24T23:42:06.553Z,7.27
2018-07-24T23:44:34.947Z,7.60
2018-07-24T23:47:03.476Z,7.20
2018-07-24T23:49:31.828Z,8.50
2018-07-24T23:52:00.670Z,8.80
2018-07-24T23:54:29.320Z,7.43
2018-07-24T23:56:57.744Z,7.63
2018-07-24T23:59:26.304Z,8.30
